sensor_id;sensor_type;location;lat;lon;timestamp;P1;durP1;ratioP1;P2;durP2;ratioP2
35990;SDS011;22064;42.672;23.282;2022-07-25T00:02:14;19.08;;;11.23;;
35990;SDS011;22064;42.672;23.282;2022-07-25T00:04:40;19.70;;;11.35;;
35990;SDS011;22064;42.672;23.282;2022-07-25T00:07:06;18.05;;;11.45;;
35990;SDS011;22064;42.672;23.282;2022-07-25T00:09:32;17.55;;;11.02;;
35990;SDS011;22064;42.672;23.282;2022-07-25T00:11:58;19.92;;;10.85;;
35990;SDS011;22064;42.672;23.282;2022-07-25T00:14:24;17.27;;;10.90;;
35990;SDS011;22064;42.672;23.282;2022-07-25T00:16:50;19.55;;;11.10;;
35990;SDS011;22064;42.672;23.282;2022-07-25T00:19:16;21.30;;;11.52;;
35990;SDS011;22064;42.672;23.282;2022-07-25T00:21:42;17.65;;;10.90;;
35990;SDS011;22064;42.672;23.282;2022-07-25T00:24:08;17.20;;;10.57;;
35990;SDS011;22064;42.672;23.282;2022-07-25T00:26:34;19.25;;;11.32;;
35990;SDS011;22064;42.672;23.282;2022-07-25T00:28:59;18.63;;;11.15;;
35990;SDS011;22064;42.672;23.282;2022-07-25T00:31:25;20.63;;;11.40;;
35990;SDS011;22064;42.672;23.282;2022-07-25T00:33:51;18.98;;;11.75;;
35990;SDS011;22064;42.672;23.282;2022-07-25T00:36:16;18.73;;;11.63;;
35990;SDS011;22064;42.672;23.282;2022-07-25T00:38:42;22.17;;;12.40;;
35990;SDS011;22064;42.672;23.282;2022-07-25T00:41:07;19.85;;;11.88;;
35990;SDS011;22064;42.672;23.282;2022-07-25T00:43:33;20.58;;;12.25;;
35990;SDS011;22064;42.672;23.282;2022-07-25T00:45:58;21.35;;;12.38;;
35990;SDS011;22064;42.672;23.282;2022-07-25T00:48:24;19.92;;;11.77;;
35990;SDS011;22064;42.672;23.282;2022-07-25T00:50:54;21.60;;;12.43;;
35990;SDS011;22064;42.672;23.282;2022-07-25T00:53:20;22.80;;;12.93;;
35990;SDS011;22064;42.672;23.282;2022-07-25T00:55:46;18.05;;;11.43;;
35990;SDS011;22064;42.672;23.282;2022-07-25T00:58:12;20.73;;;12.05;;
35990;SDS011;22064;42.672;23.282;2022-07-25T01:00:38;21.35;;;12.30;;
35990;SDS011;22064;42.672;23.282;2022-07-25T01:03:03;20.33;;;11.40;;
35990;SDS011;22064;42.672;23.282;2022-07-25T01:05:29;20.48;;;12.10;;
35990;SDS011;22064;42.672;23.282;2022-07-25T01:07:55;20.08;;;12.05;;
35990;SDS011;22064;42.672;23.282;2022-07-25T01:10:22;18.05;;;11.63;;
35990;SDS011;22064;42.672;23.282;2022-07-25T01:12:49;17.42;;;11.85;;
35990;SDS011;22064;42.672;23.282;2022-07-25T01:15:16;19.10;;;11.63;;
35990;SDS011;22064;42.672;23.282;2022-07-25T01:17:44;19.02;;;11.70;;
35990;SDS011;22064;42.672;23.282;2022-07-25T01:20:12;20.95;;;11.80;;
35990;SDS011;22064;42.672;23.282;2022-07-25T01:22:39;18.17;;;11.68;;
35990;SDS011;22064;42.672;23.282;2022-07-25T01:25:04;19.90;;;12.52;;
35990;SDS011;22064;42.672;23.282;2022-07-25T01:27:30;18.13;;;11.73;;
35990;SDS011;22064;42.672;23.282;2022-07-25T01:29:56;17.95;;;11.73;;
35990;SDS011;22064;42.672;23.282;2022-07-25T01:32:21;17.02;;;11.27;;
35990;SDS011;22064;42.672;23.282;2022-07-25T01:34:53;19.15;;;11.70;;
35990;SDS011;22064;42.672;23.282;2022-07-25T01:37:18;19.05;;;11.85;;
35990;SDS011;22064;42.672;23.282;2022-07-25T01:39:45;18.67;;;11.40;;
35990;SDS011;22064;42.672;23.282;2022-07-25T01:42:11;18.48;;;11.82;;
35990;SDS011;22064;42.672;23.282;2022-07-25T01:44:37;19.92;;;11.60;;
35990;SDS011;22064;42.672;23.282;2022-07-25T01:47:03;21.60;;;11.80;;
35990;SDS011;22064;42.672;23.282;2022-07-25T01:49:28;17.38;;;11.20;;
35990;SDS011;22064;42.672;23.282;2022-07-25T01:51:54;21.00;;;11.60;;
35990;SDS011;22064;42.672;23.282;2022-07-25T01:54:19;18.63;;;10.82;;
35990;SDS011;22064;42.672;23.282;2022-07-25T01:56:46;21.13;;;11.52;;
35990;SDS011;22064;42.672;23.282;2022-07-25T01:59:11;18.92;;;11.68;;
35990;SDS011;22064;42.672;23.282;2022-07-25T02:01:37;20.33;;;11.77;;
35990;SDS011;22064;42.672;23.282;2022-07-25T02:04:03;19.00;;;10.98;;
35990;SDS011;22064;42.672;23.282;2022-07-25T02:06:28;18.85;;;11.65;;
35990;SDS011;22064;42.672;23.282;2022-07-25T02:08:54;20.55;;;11.65;;
35990;SDS011;22064;42.672;23.282;2022-07-25T02:11:19;18.90;;;12.25;;
35990;SDS011;22064;42.672;23.282;2022-07-25T02:13:45;20.83;;;13.00;;
35990;SDS011;22064;42.672;23.282;2022-07-25T02:16:11;21.30;;;11.82;;
35990;SDS011;22064;42.672;23.282;2022-07-25T02:18:37;20.33;;;11.90;;
35990;SDS011;22064;42.672;23.282;2022-07-25T02:21:03;21.17;;;11.73;;
35990;SDS011;22064;42.672;23.282;2022-07-25T02:23:34;19.05;;;11.52;;
35990;SDS011;22064;42.672;23.282;2022-07-25T02:25:59;20.15;;;12.25;;
35990;SDS011;22064;42.672;23.282;2022-07-25T02:28:25;21.52;;;12.93;;
35990;SDS011;22064;42.672;23.282;2022-07-25T02:30:51;21.88;;;12.88;;
35990;SDS011;22064;42.672;23.282;2022-07-25T02:33:16;20.33;;;13.00;;
35990;SDS011;22064;42.672;23.282;2022-07-25T02:35:42;20.85;;;12.02;;
35990;SDS011;22064;42.672;23.282;2022-07-25T02:38:07;20.95;;;12.20;;
35990;SDS011;22064;42.672;23.282;2022-07-25T02:40:33;20.75;;;12.10;;
35990;SDS011;22064;42.672;23.282;2022-07-25T02:42:58;19.40;;;11.38;;
35990;SDS011;22064;42.672;23.282;2022-07-25T02:45:24;17.55;;;10.85;;
35990;SDS011;22064;42.672;23.282;2022-07-25T02:47:50;18.08;;;10.80;;
35990;SDS011;22064;42.672;23.282;2022-07-25T02:50:15;19.27;;;11.25;;
35990;SDS011;22064;42.672;23.282;2022-07-25T02:52:41;20.75;;;11.73;;
35990;SDS011;22064;42.672;23.282;2022-07-25T02:55:07;18.38;;;11.00;;
35990;SDS011;22064;42.672;23.282;2022-07-25T02:57:34;21.98;;;11.90;;
35990;SDS011;22064;42.672;23.282;2022-07-25T02:59:59;19.60;;;10.80;;
35990;SDS011;22064;42.672;23.282;2022-07-25T03:02:25;18.27;;;10.65;;
35990;SDS011;22064;42.672;23.282;2022-07-25T03:04:50;18.85;;;11.13;;
35990;SDS011;22064;42.672;23.282;2022-07-25T03:07:16;16.88;;;10.10;;
35990;SDS011;22064;42.672;23.282;2022-07-25T03:09:42;17.13;;;10.27;;
35990;SDS011;22064;42.672;23.282;2022-07-25T03:12:07;18.00;;;10.48;;
35990;SDS011;22064;42.672;23.282;2022-07-25T03:14:33;15.77;;;10.18;;
35990;SDS011;22064;42.672;23.282;2022-07-25T03:16:58;18.98;;;10.73;;
35990;SDS011;22064;42.672;23.282;2022-07-25T03:19:24;17.33;;;10.18;;
35990;SDS011;22064;42.672;23.282;2022-07-25T03:21:49;19.42;;;10.63;;
35990;SDS011;22064;42.672;23.282;2022-07-25T03:24:15;18.25;;;10.50;;
35990;SDS011;22064;42.672;23.282;2022-07-25T03:26:43;17.25;;;10.52;;
35990;SDS011;22064;42.672;23.282;2022-07-25T03:29:08;16.58;;;9.90;;
35990;SDS011;22064;42.672;23.282;2022-07-25T03:31:34;15.93;;;10.32;;
35990;SDS011;22064;42.672;23.282;2022-07-25T03:34:00;19.02;;;10.60;;
35990;SDS011;22064;42.672;23.282;2022-07-25T03:36:26;19.73;;;10.60;;
35990;SDS011;22064;42.672;23.282;2022-07-25T03:38:52;21.48;;;10.32;;
35990;SDS011;22064;42.672;23.282;2022-07-25T03:41:17;18.13;;;10.82;;
35990;SDS011;22064;42.672;23.282;2022-07-25T03:43:43;16.48;;;9.73;;
35990;SDS011;22064;42.672;23.282;2022-07-25T03:46:08;18.92;;;9.80;;
35990;SDS011;22064;42.672;23.282;2022-07-25T03:48:34;17.02;;;9.93;;
35990;SDS011;22064;42.672;23.282;2022-07-25T03:50:59;16.52;;;9.70;;
35990;SDS011;22064;42.672;23.282;2022-07-25T03:53:26;16.08;;;9.60;;
35990;SDS011;22064;42.672;23.282;2022-07-25T03:55:51;18.02;;;9.80;;
35990;SDS011;22064;42.672;23.282;2022-07-25T03:58:17;17.77;;;10.05;;
35990;SDS011;22064;42.672;23.282;2022-07-25T04:00:42;17.30;;;9.82;;
35990;SDS011;22064;42.672;23.282;2022-07-25T04:03:08;18.80;;;9.25;;
35990;SDS011;22064;42.672;23.282;2022-07-25T04:05:33;18.88;;;9.68;;
35990;SDS011;22064;42.672;23.282;2022-07-25T04:07:59;14.93;;;9.45;;
35990;SDS011;22064;42.672;23.282;2022-07-25T04:10:24;18.17;;;9.98;;
35990;SDS011;22064;42.672;23.282;2022-07-25T04:12:50;18.13;;;9.52;;
35990;SDS011;22064;42.672;23.282;2022-07-25T04:15:16;16.38;;;9.23;;
35990;SDS011;22064;42.672;23.282;2022-07-25T04:17:41;15.57;;;9.35;;
35990;SDS011;22064;42.672;23.282;2022-07-25T04:20:07;16.95;;;9.35;;
35990;SDS011;22064;42.672;23.282;2022-07-25T04:22:33;17.58;;;10.02;;
35990;SDS011;22064;42.672;23.282;2022-07-25T04:24:59;17.55;;;9.70;;
35990;SDS011;22064;42.672;23.282;2022-07-25T04:27:24;15.10;;;9.45;;
35990;SDS011;22064;42.672;23.282;2022-07-25T04:29:50;17.55;;;8.95;;
35990;SDS011;22064;42.672;23.282;2022-07-25T04:32:16;13.25;;;8.48;;
35990;SDS011;22064;42.672;23.282;2022-07-25T04:34:43;15.27;;;8.80;;
35990;SDS011;22064;42.672;23.282;2022-07-25T04:37:09;14.98;;;8.68;;
35990;SDS011;22064;42.672;23.282;2022-07-25T04:39:34;15.25;;;8.82;;
35990;SDS011;22064;42.672;23.282;2022-07-25T04:42:00;16.42;;;9.07;;
35990;SDS011;22064;42.672;23.282;2022-07-25T04:44:26;14.57;;;9.05;;
35990;SDS011;22064;42.672;23.282;2022-07-25T04:46:52;16.58;;;9.25;;
35990;SDS011;22064;42.672;23.282;2022-07-25T04:49:18;14.93;;;8.82;;
35990;SDS011;22064;42.672;23.282;2022-07-25T04:51:43;14.43;;;9.00;;
35990;SDS011;22064;42.672;23.282;2022-07-25T04:54:09;16.13;;;8.95;;
35990;SDS011;22064;42.672;23.282;2022-07-25T04:56:34;16.90;;;9.27;;
35990;SDS011;22064;42.672;23.282;2022-07-25T04:59:00;12.40;;;8.18;;
35990;SDS011;22064;42.672;23.282;2022-07-25T05:01:25;14.15;;;8.93;;
35990;SDS011;22064;42.672;23.282;2022-07-25T05:03:51;12.80;;;7.82;;
35990;SDS011;22064;42.672;23.282;2022-07-25T05:06:17;14.43;;;9.00;;
35990;SDS011;22064;42.672;23.282;2022-07-25T05:08:43;18.63;;;8.98;;
35990;SDS011;22064;42.672;23.282;2022-07-25T05:11:09;13.88;;;8.50;;
35990;SDS011;22064;42.672;23.282;2022-07-25T05:13:35;16.25;;;8.52;;
35990;SDS011;22064;42.672;23.282;2022-07-25T05:16:00;13.75;;;8.15;;
35990;SDS011;22064;42.672;23.282;2022-07-25T05:18:27;13.93;;;8.38;;
35990;SDS011;22064;42.672;23.282;2022-07-25T05:20:52;13.20;;;8.00;;
35990;SDS011;22064;42.672;23.282;2022-07-25T05:23:18;14.88;;;8.32;;
35990;SDS011;22064;42.672;23.282;2022-07-25T05:25:43;15.38;;;8.35;;
35990;SDS011;22064;42.672;23.282;2022-07-25T05:28:09;14.77;;;8.32;;
35990;SDS011;22064;42.672;23.282;2022-07-25T05:30:34;17.45;;;8.45;;
35990;SDS011;22064;42.672;23.282;2022-07-25T05:33:00;13.52;;;8.02;;
35990;SDS011;22064;42.672;23.282;2022-07-25T05:35:26;14.18;;;8.27;;
35990;SDS011;22064;42.672;23.282;2022-07-25T05:37:51;14.73;;;8.65;;
35990;SDS011;22064;42.672;23.282;2022-07-25T05:40:17;15.75;;;8.73;;
35990;SDS011;22064;42.672;23.282;2022-07-25T05:42:43;13.27;;;8.35;;
35990;SDS011;22064;42.672;23.282;2022-07-25T05:45:09;16.50;;;8.63;;
35990;SDS011;22064;42.672;23.282;2022-07-25T05:47:35;17.73;;;8.82;;
35990;SDS011;22064;42.672;23.282;2022-07-25T05:50:00;13.35;;;8.35;;
35990;SDS011;22064;42.672;23.282;2022-07-25T05:52:26;14.80;;;8.68;;
35990;SDS011;22064;42.672;23.282;2022-07-25T05:54:52;13.40;;;8.45;;
35990;SDS011;22064;42.672;23.282;2022-07-25T05:57:18;15.32;;;8.45;;
35990;SDS011;22064;42.672;23.282;2022-07-25T05:59:43;15.20;;;8.70;;
35990;SDS011;22064;42.672;23.282;2022-07-25T06:02:09;12.63;;;8.30;;
35990;SDS011;22064;42.672;23.282;2022-07-25T06:04:34;16.70;;;8.40;;
35990;SDS011;22064;42.672;23.282;2022-07-25T06:07:00;12.57;;;7.75;;
35990;SDS011;22064;42.672;23.282;2022-07-25T06:09:26;15.77;;;8.27;;
35990;SDS011;22064;42.672;23.282;2022-07-25T06:11:51;12.35;;;7.72;;
35990;SDS011;22064;42.672;23.282;2022-07-25T06:14:17;14.70;;;8.13;;
35990;SDS011;22064;42.672;23.282;2022-07-25T06:16:42;15.95;;;7.97;;
35990;SDS011;22064;42.672;23.282;2022-07-25T06:19:08;12.82;;;7.75;;
35990;SDS011;22064;42.672;23.282;2022-07-25T06:21:34;14.93;;;8.32;;
35990;SDS011;22064;42.672;23.282;2022-07-25T06:24:01;14.52;;;7.78;;
35990;SDS011;22064;42.672;23.282;2022-07-25T06:26:26;13.40;;;7.78;;
35990;SDS011;22064;42.672;23.282;2022-07-25T06:28:52;16.60;;;8.25;;
35990;SDS011;22064;42.672;23.282;2022-07-25T06:31:17;12.32;;;7.72;;
35990;SDS011;22064;42.672;23.282;2022-07-25T06:33:43;15.02;;;8.70;;
35990;SDS011;22064;42.672;23.282;2022-07-25T06:36:09;13.38;;;8.18;;
35990;SDS011;22064;42.672;23.282;2022-07-25T06:38:35;14.75;;;8.25;;
35990;SDS011;22064;42.672;23.282;2022-07-25T06:41:00;13.55;;;8.48;;
35990;SDS011;22064;42.672;23.282;2022-07-25T06:43:26;14.75;;;7.93;;
35990;SDS011;22064;42.672;23.282;2022-07-25T06:45:52;13.38;;;8.23;;
35990;SDS011;22064;42.672;23.282;2022-07-25T06:48:18;13.23;;;8.10;;
35990;SDS011;22064;42.672;23.282;2022-07-25T06:50:44;14.18;;;8.48;;
35990;SDS011;22064;42.672;23.282;2022-07-25T06:53:10;13.48;;;8.48;;
35990;SDS011;22064;42.672;23.282;2022-07-25T06:55:36;13.93;;;8.43;;
35990;SDS011;22064;42.672;23.282;2022-07-25T06:58:02;16.35;;;8.23;;
35990;SDS011;22064;42.672;23.282;2022-07-25T07:00:27;14.52;;;8.73;;
35990;SDS011;22064;42.672;23.282;2022-07-25T07:02:54;16.75;;;8.48;;
35990;SDS011;22064;42.672;23.282;2022-07-25T07:05:27;11.05;;;7.80;;
35990;SDS011;22064;42.672;23.282;2022-07-25T07:07:54;12.85;;;8.25;;
35990;SDS011;22064;42.672;23.282;2022-07-25T07:10:20;14.30;;;8.50;;
35990;SDS011;22064;42.672;23.282;2022-07-25T07:12:46;14.13;;;8.38;;
35990;SDS011;22064;42.672;23.282;2022-07-25T07:15:12;13.95;;;8.68;;
35990;SDS011;22064;42.672;23.282;2022-07-25T07:17:39;13.50;;;8.52;;
35990;SDS011;22064;42.672;23.282;2022-07-25T07:20:05;14.68;;;8.90;;
35990;SDS011;22064;42.672;23.282;2022-07-25T07:22:31;13.88;;;8.43;;
35990;SDS011;22064;42.672;23.282;2022-07-25T07:24:57;16.38;;;9.32;;
35990;SDS011;22064;42.672;23.282;2022-07-25T07:27:22;15.70;;;8.80;;
35990;SDS011;22064;42.672;23.282;2022-07-25T07:29:49;14.52;;;8.75;;
35990;SDS011;22064;42.672;23.282;2022-07-25T07:32:15;12.80;;;8.23;;
35990;SDS011;22064;42.672;23.282;2022-07-25T07:34:40;14.65;;;9.02;;
35990;SDS011;22064;42.672;23.282;2022-07-25T07:37:06;15.02;;;8.48;;
35990;SDS011;22064;42.672;23.282;2022-07-25T07:39:31;15.15;;;9.02;;
35990;SDS011;22064;42.672;23.282;2022-07-25T07:41:57;16.83;;;9.30;;
35990;SDS011;22064;42.672;23.282;2022-07-25T07:44:22;14.40;;;8.80;;
35990;SDS011;22064;42.672;23.282;2022-07-25T07:46:48;13.70;;;8.52;;
35990;SDS011;22064;42.672;23.282;2022-07-25T07:49:14;14.15;;;8.50;;
35990;SDS011;22064;42.672;23.282;2022-07-25T07:51:40;15.38;;;8.50;;
35990;SDS011;22064;42.672;23.282;2022-07-25T07:54:05;13.73;;;8.70;;
35990;SDS011;22064;42.672;23.282;2022-07-25T07:56:49;13.20;;;8.40;;
35990;SDS011;22064;42.672;23.282;2022-07-25T07:59:15;15.38;;;8.43;;
35990;SDS011;22064;42.672;23.282;2022-07-25T08:01:41;13.23;;;8.52;;
35990;SDS011;22064;42.672;23.282;2022-07-25T08:04:06;12.85;;;8.93;;
35990;SDS011;22064;42.672;23.282;2022-07-25T08:06:32;13.45;;;8.23;;
35990;SDS011;22064;42.672;23.282;2022-07-25T08:08:57;14.00;;;8.57;;
35990;SDS011;22064;42.672;23.282;2022-07-25T08:11:23;16.88;;;9.13;;
35990;SDS011;22064;42.672;23.282;2022-07-25T08:13:50;14.00;;;8.38;;
35990;SDS011;22064;42.672;23.282;2022-07-25T08:16:16;12.48;;;8.40;;
35990;SDS011;22064;42.672;23.282;2022-07-25T08:18:41;14.73;;;8.50;;
35990;SDS011;22064;42.672;23.282;2022-07-25T08:21:07;13.27;;;8.18;;
35990;SDS011;22064;42.672;23.282;2022-07-25T08:23:33;13.80;;;8.95;;
35990;SDS011;22064;42.672;23.282;2022-07-25T08:26:02;15.57;;;9.30;;
35990;SDS011;22064;42.672;23.282;2022-07-25T08:28:28;13.40;;;8.55;;
35990;SDS011;22064;42.672;23.282;2022-07-25T08:30:53;14.00;;;8.60;;
35990;SDS011;22064;42.672;23.282;2022-07-25T08:33:19;14.18;;;8.65;;
35990;SDS011;22064;42.672;23.282;2022-07-25T08:35:46;16.50;;;8.52;;
35990;SDS011;22064;42.672;23.282;2022-07-25T08:38:13;14.40;;;8.65;;
35990;SDS011;22064;42.672;23.282;2022-07-25T08:40:39;14.15;;;8.40;;
35990;SDS011;22064;42.672;23.282;2022-07-25T08:43:04;11.13;;;7.90;;
35990;SDS011;22064;42.672;23.282;2022-07-25T08:45:30;12.63;;;8.63;;
35990;SDS011;22064;42.672;23.282;2022-07-25T08:47:57;11.15;;;7.80;;
35990;SDS011;22064;42.672;23.282;2022-07-25T08:50:24;12.35;;;8.00;;
35990;SDS011;22064;42.672;23.282;2022-07-25T08:55:19;14.77;;;8.48;;
35990;SDS011;22064;42.672;23.282;2022-07-25T09:00:16;12.27;;;7.93;;
35990;SDS011;22064;42.672;23.282;2022-07-25T09:02:49;14.80;;;8.40;;
35990;SDS011;22064;42.672;23.282;2022-07-25T09:05:15;14.43;;;8.13;;
35990;SDS011;22064;42.672;23.282;2022-07-25T09:07:42;12.23;;;8.05;;
35990;SDS011;22064;42.672;23.282;2022-07-25T09:10:14;12.15;;;7.95;;
35990;SDS011;22064;42.672;23.282;2022-07-25T09:13:02;16.52;;;8.60;;
35990;SDS011;22064;42.672;23.282;2022-07-25T09:15:40;13.02;;;8.23;;
35990;SDS011;22064;42.672;23.282;2022-07-25T09:18:10;11.45;;;7.90;;
35990;SDS011;22064;42.672;23.282;2022-07-25T09:23:26;13.35;;;7.97;;
35990;SDS011;22064;42.672;23.282;2022-07-25T09:26:00;14.43;;;8.18;;
35990;SDS011;22064;42.672;23.282;2022-07-25T09:28:26;13.80;;;8.52;;
35990;SDS011;22064;42.672;23.282;2022-07-25T09:30:56;15.02;;;8.05;;
35990;SDS011;22064;42.672;23.282;2022-07-25T09:33:24;13.52;;;8.38;;
35990;SDS011;22064;42.672;23.282;2022-07-25T09:35:51;17.27;;;8.32;;
35990;SDS011;22064;42.672;23.282;2022-07-25T09:38:18;14.10;;;8.05;;
35990;SDS011;22064;42.672;23.282;2022-07-25T09:43:34;13.70;;;8.80;;
35990;SDS011;22064;42.672;23.282;2022-07-25T09:46:04;15.63;;;8.52;;
35990;SDS011;22064;42.672;23.282;2022-07-25T09:48:31;12.55;;;7.90;;
35990;SDS011;22064;42.672;23.282;2022-07-25T09:50:58;12.77;;;8.55;;
35990;SDS011;22064;42.672;23.282;2022-07-25T09:53:24;12.70;;;8.25;;
35990;SDS011;22064;42.672;23.282;2022-07-25T09:55:50;11.32;;;8.10;;
35990;SDS011;22064;42.672;23.282;2022-07-25T09:58:17;10.80;;;7.43;;
35990;SDS011;22064;42.672;23.282;2022-07-25T10:00:43;12.98;;;8.35;;
35990;SDS011;22064;42.672;23.282;2022-07-25T10:03:17;13.50;;;8.10;;
35990;SDS011;22064;42.672;23.282;2022-07-25T10:08:36;11.65;;;7.68;;
35990;SDS011;22064;42.672;23.282;2022-07-25T10:11:02;11.52;;;7.95;;
35990;SDS011;22064;42.672;23.282;2022-07-25T10:13:34;12.70;;;8.20;;
35990;SDS011;22064;42.672;23.282;2022-07-25T10:16:00;11.82;;;7.53;;
35990;SDS011;22064;42.672;23.282;2022-07-25T10:18:27;11.32;;;7.72;;
35990;SDS011;22064;42.672;23.282;2022-07-25T10:20:55;11.73;;;6.70;;
35990;SDS011;22064;42.672;23.282;2022-07-25T10:23:33;9.25;;;7.18;;
35990;SDS011;22064;42.672;23.282;2022-07-25T10:28:40;11.47;;;7.47;;
35990;SDS011;22064;42.672;23.282;2022-07-25T10:39:20;10.30;;;7.22;;
35990;SDS011;22064;42.672;23.282;2022-07-25T10:44:16;12.60;;;7.35;;
35990;SDS011;22064;42.672;23.282;2022-07-25T10:46:42;9.85;;;7.18;;
35990;SDS011;22064;42.672;23.282;2022-07-25T10:49:15;11.57;;;7.53;;
35990;SDS011;22064;42.672;23.282;2022-07-25T10:51:50;11.70;;;7.13;;
35990;SDS011;22064;42.672;23.282;2022-07-25T10:54:19;11.65;;;7.22;;
35990;SDS011;22064;42.672;23.282;2022-07-25T10:56:50;12.43;;;7.35;;
35990;SDS011;22064;42.672;23.282;2022-07-25T10:59:36;9.55;;;6.70;;
35990;SDS011;22064;42.672;23.282;2022-07-25T11:02:03;10.45;;;7.05;;
35990;SDS011;22064;42.672;23.282;2022-07-25T11:04:30;12.27;;;7.03;;
35990;SDS011;22064;42.672;23.282;2022-07-25T11:06:57;11.55;;;7.13;;
35990;SDS011;22064;42.672;23.282;2022-07-25T11:09:32;8.82;;;6.57;;
35990;SDS011;22064;42.672;23.282;2022-07-25T11:11:58;8.50;;;6.18;;
35990;SDS011;22064;42.672;23.282;2022-07-25T11:14:28;10.27;;;7.03;;
35990;SDS011;22064;42.672;23.282;2022-07-25T11:16:57;10.25;;;6.68;;
35990;SDS011;22064;42.672;23.282;2022-07-25T11:20:00;10.32;;;6.35;;
35990;SDS011;22064;42.672;23.282;2022-07-25T11:22:29;13.60;;;6.53;;
35990;SDS011;22064;42.672;23.282;2022-07-25T11:24:56;10.55;;;6.53;;
35990;SDS011;22064;42.672;23.282;2022-07-25T11:27:29;11.57;;;7.00;;
35990;SDS011;22064;42.672;23.282;2022-07-25T11:30:15;12.32;;;7.05;;
35990;SDS011;22064;42.672;23.282;2022-07-25T11:32:44;9.00;;;6.68;;
35990;SDS011;22064;42.672;23.282;2022-07-25T11:35:11;9.85;;;7.03;;
35990;SDS011;22064;42.672;23.282;2022-07-25T11:37:39;10.10;;;6.75;;
35990;SDS011;22064;42.672;23.282;2022-07-25T11:40:07;12.07;;;6.68;;
35990;SDS011;22064;42.672;23.282;2022-07-25T11:42:47;10.00;;;7.03;;
35990;SDS011;22064;42.672;23.282;2022-07-25T11:45:21;12.13;;;6.82;;
35990;SDS011;22064;42.672;23.282;2022-07-25T11:48:01;10.18;;;7.15;;
35990;SDS011;22064;42.672;23.282;2022-07-25T11:50:28;9.88;;;6.72;;
35990;SDS011;22064;42.672;23.282;2022-07-25T11:52:59;10.43;;;7.20;;
35990;SDS011;22064;42.672;23.282;2022-07-25T11:55:27;11.85;;;6.95;;
35990;SDS011;22064;42.672;23.282;2022-07-25T11:57:57;10.80;;;7.18;;
35990;SDS011;22064;42.672;23.282;2022-07-25T12:00:23;12.20;;;7.15;;
35990;SDS011;22064;42.672;23.282;2022-07-25T12:02:49;10.52;;;7.38;;
35990;SDS011;22064;42.672;23.282;2022-07-25T12:05:17;9.57;;;6.97;;
35990;SDS011;22064;42.672;23.282;2022-07-25T12:07:45;11.77;;;7.45;;
35990;SDS011;22064;42.672;23.282;2022-07-25T12:10:21;11.73;;;7.85;;
35990;SDS011;22064;42.672;23.282;2022-07-25T12:15:14;13.18;;;7.07;;
35990;SDS011;22064;42.672;23.282;2022-07-25T12:17:42;9.50;;;7.13;;
35990;SDS011;22064;42.672;23.282;2022-07-25T12:20:15;9.85;;;6.93;;
35990;SDS011;22064;42.672;23.282;2022-07-25T12:22:47;11.18;;;7.13;;
35990;SDS011;22064;42.672;23.282;2022-07-25T12:25:14;12.80;;;7.10;;
35990;SDS011;22064;42.672;23.282;2022-07-25T12:27:40;11.40;;;7.28;;
35990;SDS011;22064;42.672;23.282;2022-07-25T12:30:07;9.75;;;6.90;;
35990;SDS011;22064;42.672;23.282;2022-07-25T12:32:33;10.80;;;6.95;;
35990;SDS011;22064;42.672;23.282;2022-07-25T12:34:59;10.82;;;6.50;;
35990;SDS011;22064;42.672;23.282;2022-07-25T12:37:25;9.50;;;6.68;;
35990;SDS011;22064;42.672;23.282;2022-07-25T12:39:51;10.73;;;6.82;;
35990;SDS011;22064;42.672;23.282;2022-07-25T12:42:18;9.50;;;6.85;;
35990;SDS011;22064;42.672;23.282;2022-07-25T12:44:43;12.68;;;7.50;;
35990;SDS011;22064;42.672;23.282;2022-07-25T12:47:09;11.55;;;7.05;;
35990;SDS011;22064;42.672;23.282;2022-07-25T12:49:35;10.52;;;6.93;;
35990;SDS011;22064;42.672;23.282;2022-07-25T12:52:00;9.75;;;6.53;;
35990;SDS011;22064;42.672;23.282;2022-07-25T12:54:26;9.85;;;6.32;;
35990;SDS011;22064;42.672;23.282;2022-07-25T12:56:51;9.85;;;6.65;;
35990;SDS011;22064;42.672;23.282;2022-07-25T12:59:17;9.98;;;6.90;;
35990;SDS011;22064;42.672;23.282;2022-07-25T13:01:43;11.75;;;7.00;;
35990;SDS011;22064;42.672;23.282;2022-07-25T13:04:08;10.13;;;6.90;;
35990;SDS011;22064;42.672;23.282;2022-07-25T13:06:34;10.77;;;6.88;;
35990;SDS011;22064;42.672;23.282;2022-07-25T13:09:00;10.63;;;7.53;;
35990;SDS011;22064;42.672;23.282;2022-07-25T13:11:27;10.88;;;7.25;;
35990;SDS011;22064;42.672;23.282;2022-07-25T13:13:52;11.23;;;7.43;;
35990;SDS011;22064;42.672;23.282;2022-07-25T13:16:18;11.73;;;6.80;;
35990;SDS011;22064;42.672;23.282;2022-07-25T13:18:44;13.25;;;7.95;;
35990;SDS011;22064;42.672;23.282;2022-07-25T13:21:09;11.32;;;7.00;;
35990;SDS011;22064;42.672;23.282;2022-07-25T13:23:35;13.07;;;7.10;;
35990;SDS011;22064;42.672;23.282;2022-07-25T13:26:01;9.15;;;6.85;;
35990;SDS011;22064;42.672;23.282;2022-07-25T13:28:27;10.50;;;7.05;;
35990;SDS011;22064;42.672;23.282;2022-07-25T13:30:53;10.52;;;7.43;;
35990;SDS011;22064;42.672;23.282;2022-07-25T13:33:19;9.82;;;6.90;;
35990;SDS011;22064;42.672;23.282;2022-07-25T13:35:45;9.82;;;6.35;;
35990;SDS011;22064;42.672;23.282;2022-07-25T13:38:11;8.85;;;7.05;;
35990;SDS011;22064;42.672;23.282;2022-07-25T13:40:37;9.40;;;6.80;;
35990;SDS011;22064;42.672;23.282;2022-07-25T13:43:09;9.40;;;6.40;;
35990;SDS011;22064;42.672;23.282;2022-07-25T13:45:36;12.18;;;6.43;;
35990;SDS011;22064;42.672;23.282;2022-07-25T13:48:02;10.05;;;7.10;;
35990;SDS011;22064;42.672;23.282;2022-07-25T13:50:29;9.75;;;6.57;;
35990;SDS011;22064;42.672;23.282;2022-07-25T13:52:55;9.88;;;6.72;;
35990;SDS011;22064;42.672;23.282;2022-07-25T13:55:22;11.02;;;7.05;;
35990;SDS011;22064;42.672;23.282;2022-07-25T13:57:51;10.32;;;6.78;;
35990;SDS011;22064;42.672;23.282;2022-07-25T14:00:16;9.38;;;6.63;;
35990;SDS011;22064;42.672;23.282;2022-07-25T14:02:42;11.50;;;6.60;;
35990;SDS011;22064;42.672;23.282;2022-07-25T14:05:08;11.18;;;6.50;;
35990;SDS011;22064;42.672;23.282;2022-07-25T14:07:34;10.35;;;6.72;;
35990;SDS011;22064;42.672;23.282;2022-07-25T14:10:01;10.23;;;6.72;;
35990;SDS011;22064;42.672;23.282;2022-07-25T14:12:27;11.50;;;6.47;;
35990;SDS011;22064;42.672;23.282;2022-07-25T14:14:53;9.95;;;6.85;;
35990;SDS011;22064;42.672;23.282;2022-07-25T14:17:19;9.85;;;6.47;;
35990;SDS011;22064;42.672;23.282;2022-07-25T14:19:45;11.80;;;6.82;;
35990;SDS011;22064;42.672;23.282;2022-07-25T14:22:11;7.10;;;6.15;;
35990;SDS011;22064;42.672;23.282;2022-07-25T14:24:36;11.18;;;6.45;;
35990;SDS011;22064;42.672;23.282;2022-07-25T14:27:02;9.30;;;6.57;;
35990;SDS011;22064;42.672;23.282;2022-07-25T14:29:28;8.35;;;6.43;;
35990;SDS011;22064;42.672;23.282;2022-07-25T14:31:54;8.95;;;6.65;;
35990;SDS011;22064;42.672;23.282;2022-07-25T14:34:19;9.15;;;6.35;;
35990;SDS011;22064;42.672;23.282;2022-07-25T14:36:45;8.45;;;6.50;;
35990;SDS011;22064;42.672;23.282;2022-07-25T14:39:12;10.55;;;6.32;;
35990;SDS011;22064;42.672;23.282;2022-07-25T14:41:39;9.60;;;5.93;;
35990;SDS011;22064;42.672;23.282;2022-07-25T14:44:05;11.85;;;6.18;;
35990;SDS011;22064;42.672;23.282;2022-07-25T14:46:33;8.38;;;6.35;;